createdAt,value
2022-08-19T00:00:48.769Z,20.50
2022-08-19T00:03:30.665Z,20.90
2022-08-19T00:06:12.971Z,19.40
2022-08-19T00:09:01.259Z,21.20
2022-08-19T00:11:44.953Z,19.00
2022-08-19T00:14:28.182Z,20.90
2022-08-19T00:17:10.998Z,21.60
2022-08-19T00:19:52.895Z,20.40
2022-08-19T00:22:35.813Z,21.10
2022-08-19T00:25:18.069Z,21.00
2022-08-19T00:28:00.497Z,22.10
2022-08-19T00:30:42.423Z,21.50
2022-08-19T00:33:24.319Z,20.50
2022-08-19T00:36:09.112Z,21.10
2022-08-19T00:38:52.923Z,19.70
2022-08-19T00:41:35.277Z,21.70
2022-08-19T00:44:27.115Z,20.30
2022-08-19T00:47:11.004Z,21.80
2022-08-19T00:49:59.480Z,20.60
2022-08-19T00:52:46.624Z,20.80
2022-08-19T00:55:30.102Z,19.70
2022-08-19T00:58:16.607Z,21.20
2022-08-19T01:00:58.762Z,19.60
2022-08-19T01:03:57.768Z,20.30
2022-08-19T01:06:42.501Z,21.00
2022-08-19T01:09:27.331Z,21.70
2022-08-19T01:12:10.046Z,21.90
2022-08-19T01:14:54.399Z,20.30
2022-08-19T01:17:39.370Z,21.30
2022-08-19T01:20:23.975Z,19.90
2022-08-19T01:23:06.073Z,20.10
2022-08-19T01:25:51.183Z,21.40
2022-08-19T01:28:39.690Z,21.00
2022-08-19T01:31:32.601Z,20.00
2022-08-19T01:34:15.011Z,20.90
2022-08-19T01:36:56.907Z,20.50
2022-08-19T01:39:41.495Z,21.80
2022-08-19T01:42:30.536Z,20.20
2022-08-19T01:45:12.834Z,21.00
2022-08-19T01:48:01.995Z,20.80
2022-08-19T01:50:44.920Z,21.80
2022-08-19T01:53:33.618Z,19.80
2022-08-19T01:56:18.440Z,20.40
2022-08-19T01:59:09.570Z,20.40
2022-08-19T02:01:51.593Z,19.80
2022-08-19T02:04:35.012Z,20.60
2022-08-19T02:07:20.871Z,18.90
2022-08-19T02:10:09.041Z,19.10
2022-08-19T02:12:54.704Z,17.80
2022-08-19T02:15:36.798Z,18.10
2022-08-19T02:18:19.102Z,18.10
2022-08-19T02:21:00.999Z,18.10
2022-08-19T02:23:44.021Z,16.90
2022-08-19T02:26:27.777Z,17.20
2022-08-19T02:29:09.760Z,17.80
2022-08-19T02:31:52.496Z,17.90
2022-08-19T02:34:35.188Z,17.60
2022-08-19T02:37:36.028Z,18.50
2022-08-19T02:40:18.958Z,17.70
2022-08-19T02:43:02.114Z,18.10
2022-08-19T02:45:44.217Z,17.70
2022-08-19T02:48:27.012Z,18.30
2022-08-19T02:51:09.192Z,19.20
2022-08-19T02:53:51.498Z,17.30
2022-08-19T02:56:36.525Z,17.70
2022-08-19T02:59:18.567Z,18.00
2022-08-19T03:02:05.070Z,19.90
2022-08-19T03:04:47.428Z,18.20
2022-08-19T03:07:29.374Z,18.60
2022-08-19T03:10:11.477Z,17.80
2022-08-19T03:12:53.599Z,17.50
2022-08-19T03:15:35.881Z,18.40
2022-08-19T03:18:18.455Z,18.40
2022-08-19T03:21:00.695Z,17.50
2022-08-19T03:23:42.592Z,19.20
2022-08-19T03:26:24.737Z,17.20
2022-08-19T03:29:07.252Z,18.80
2022-08-19T03:31:53.195Z,18.20
2022-08-19T03:34:38.164Z,18.40
2022-08-19T03:37:19.955Z,19.40
2022-08-19T03:40:04.990Z,19.30
2022-08-19T03:42:48.668Z,17.80
2022-08-19T03:45:31.428Z,17.00
2022-08-19T03:48:13.318Z,19.30
2022-08-19T03:50:55.168Z,17.70
2022-08-19T03:53:37.064Z,18.80
2022-08-19T03:56:19.369Z,19.40
2022-08-19T03:59:01.369Z,18.70
2022-08-19T04:01:44.137Z,20.00
2022-08-19T04:04:29.228Z,20.60
2022-08-19T04:07:14.695Z,17.90
2022-08-19T04:09:56.630Z,18.60
2022-08-19T04:12:38.732Z,19.30
2022-08-19T04:15:22.060Z,19.60
2022-08-19T04:18:04.981Z,18.50
2022-08-19T04:20:48.937Z,18.90
2022-08-19T04:23:31.331Z,19.90
2022-08-19T04:26:19.785Z,19.00
2022-08-19T04:29:10.452Z,19.90
2022-08-19T04:31:56.703Z,18.80
2022-08-19T04:35:03.262Z,19.90
2022-08-19T04:37:40.950Z,18.80
2022-08-19T04:40:41.382Z,19.90
2022-08-19T04:43:23.222Z,18.70
2022-08-19T04:46:11.727Z,19.20
2022-08-19T04:49:13.727Z,19.70
2022-08-19T04:51:56.613Z,19.70
2022-08-19T04:54:39.536Z,20.60
2022-08-19T04:57:22.861Z,18.90
2022-08-19T05:00:05.421Z,18.90
2022-08-19T05:02:47.425Z,19.00
2022-08-19T05:05:29.368Z,20.00
2022-08-19T05:08:12.493Z,19.20
2022-08-19T05:10:58.514Z,19.20
2022-08-19T05:13:40.791Z,18.70
2022-08-19T05:16:25.143Z,18.70
2022-08-19T05:19:26.290Z,18.10
2022-08-19T05:22:27.031Z,19.20
2022-08-19T05:25:13.905Z,19.40
2022-08-19T05:27:56.144Z,20.10
2022-08-19T05:30:47.303Z,18.80
2022-08-19T05:33:29.872Z,18.80
2022-08-19T05:36:12.382Z,17.90
2022-08-19T05:38:55.100Z,18.70
2022-08-19T05:41:42.008Z,17.80
2022-08-19T05:44:25.999Z,18.70
2022-08-19T05:47:09.690Z,19.40
2022-08-19T05:49:52.115Z,19.50
2022-08-19T05:52:34.246Z,19.40
2022-08-19T05:55:16.606Z,17.10
2022-08-19T05:57:59.331Z,18.50
2022-08-19T06:00:44.327Z,18.50
2022-08-19T06:03:26.288Z,17.50
2022-08-19T06:06:10.377Z,19.40
2022-08-19T06:08:52.331Z,18.50
2022-08-19T06:11:38.426Z,17.60
2022-08-19T06:14:27.726Z,17.00
2022-08-19T06:17:10.103Z,18.60
2022-08-19T06:19:51.998Z,18.00
2022-08-19T06:22:50.381Z,17.30
2022-08-19T06:25:32.378Z,18.00
2022-08-19T06:28:15.423Z,17.80
2022-08-19T06:30:57.810Z,18.60
2022-08-19T06:33:40.319Z,17.70
2022-08-19T06:36:32.865Z,17.30
2022-08-19T06:39:19.998Z,18.70
2022-08-19T06:42:07.407Z,18.50
2022-08-19T06:44:53.281Z,17.70
2022-08-19T06:47:35.809Z,17.30
2022-08-19T06:50:17.730Z,18.10
2022-08-19T06:53:01.527Z,16.80
2022-08-19T06:55:47.127Z,18.40
2022-08-19T06:58:33.324Z,16.30
2022-08-19T07:01:15.219Z,17.90
2022-08-19T07:03:57.731Z,17.00
2022-08-19T07:06:43.420Z,18.00
2022-08-19T07:09:26.845Z,16.80
2022-08-19T07:12:11.619Z,17.80
2022-08-19T07:14:55.142Z,19.00
2022-08-19T07:17:39.803Z,17.90
2022-08-19T07:20:28.407Z,18.20
2022-08-19T07:23:15.892Z,18.10
2022-08-19T07:25:58.555Z,17.80
2022-08-19T07:28:40.802Z,17.70
2022-08-19T07:31:37.954Z,18.30
2022-08-19T07:34:20.363Z,18.70
2022-08-19T07:37:02.257Z,18.30
2022-08-19T07:39:44.218Z,17.30
2022-08-19T07:42:26.868Z,19.30
2022-08-19T07:45:09.325Z,18.80
2022-08-19T07:47:51.454Z,17.20
2022-08-19T07:50:33.580Z,18.50
2022-08-19T07:53:15.418Z,18.60
2022-08-19T07:56:01.364Z,19.20
2022-08-19T07:58:45.865Z,19.00
2022-08-19T08:01:29.198Z,18.90
2022-08-19T08:04:31.013Z,19.70
2022-08-19T08:07:31.793Z,19.80
2022-08-19T08:10:21.194Z,19.30
2022-08-19T08:13:09.871Z,19.80
2022-08-19T08:15:52.975Z,20.80
2022-08-19T08:18:42.594Z,20.10
2022-08-19T08:21:24.425Z,19.90
2022-08-19T08:24:06.474Z,22.00
2022-08-19T08:26:52.207Z,21.40
2022-08-19T08:29:41.630Z,21.20
2022-08-19T08:32:24.387Z,20.60
2022-08-19T08:35:09.728Z,20.50
2022-08-19T08:37:54.869Z,20.00
2022-08-19T08:40:50.925Z,20.30
2022-08-19T08:43:38.277Z,21.90
2022-08-19T08:46:41.237Z,21.10
2022-08-19T08:49:38.798Z,22.30
2022-08-19T08:52:23.868Z,22.60
2022-08-19T08:55:11.293Z,22.60
2022-08-19T08:58:15.109Z,20.20
2022-08-19T09:00:57.767Z,19.40
2022-08-19T09:03:43.100Z,21.80
2022-08-19T09:06:40.695Z,20.30
2022-08-19T09:09:36.478Z,22.20
2022-08-19T09:12:51.244Z,21.10
2022-08-19T09:15:45.690Z,21.00
2022-08-19T09:18:48.780Z,20.00
2022-08-19T09:21:34.202Z,20.60
2022-08-19T09:24:16.409Z,22.10
2022-08-19T09:26:58.306Z,21.70
2022-08-19T09:29:40.404Z,20.20
2022-08-19T09:32:26.062Z,21.40
2022-08-19T09:35:09.622Z,22.80
2022-08-19T09:37:57.725Z,22.70
2022-08-19T09:43:33.359Z,20.30
2022-08-19T09:46:18.400Z,22.60
2022-08-19T09:49:06.121Z,22.80
2022-08-19T09:51:55.547Z,21.30
2022-08-19T09:54:38.891Z,19.50
2022-08-19T09:57:20.834Z,21.70
2022-08-19T10:00:07.648Z,20.70
2022-08-19T10:02:49.642Z,22.30
2022-08-19T10:05:50.587Z,21.50
2022-08-19T10:08:38.419Z,20.40
2022-08-19T10:11:27.308Z,20.70
2022-08-19T10:14:11.017Z,19.50
2022-08-19T10:16:53.223Z,18.90
2022-08-19T10:19:37.305Z,20.30
2022-08-19T10:22:20.186Z,20.20
2022-08-19T10:25:02.013Z,17.80
2022-08-19T10:27:47.899Z,17.20
2022-08-19T10:30:33.451Z,17.00
2022-08-19T10:33:27.086Z,16.40
2022-08-19T10:36:23.763Z,18.00
2022-08-19T10:39:09.475Z,16.90
2022-08-19T10:41:51.279Z,18.70
2022-08-19T10:44:52.454Z,18.50
2022-08-19T10:47:37.996Z,18.70
2022-08-19T10:50:39.224Z,16.40
2022-08-19T10:53:27.052Z,18.90
2022-08-19T10:56:29.840Z,16.60
2022-08-19T10:59:15.319Z,17.10
2022-08-19T11:02:02.056Z,16.90
2022-08-19T11:04:44.184Z,15.70
2022-08-19T11:07:29.198Z,16.50
2022-08-19T11:10:33.493Z,16.50
2022-08-19T11:13:15.358Z,17.30
2022-08-19T11:16:08.941Z,18.20
2022-08-19T11:18:54.414Z,16.80
2022-08-19T11:21:42.720Z,17.00
2022-08-19T11:24:26.966Z,17.40
2022-08-19T11:27:10.855Z,16.80
2022-08-19T11:29:54.187Z,17.10
2022-08-19T11:32:36.138Z,17.30
2022-08-19T11:35:21.438Z,16.70
2022-08-19T11:38:07.187Z,18.10
2022-08-19T11:41:02.502Z,16.00
2022-08-19T11:43:46.445Z,16.00
2022-08-19T11:46:30.798Z,15.30
2022-08-19T11:49:14.356Z,15.30
2022-08-19T11:51:56.641Z,14.20
2022-08-19T11:54:38.533Z,16.90
2022-08-19T11:57:21.043Z,16.00
2022-08-19T12:00:06.869Z,15.70
2022-08-19T12:02:48.932Z,15.70
2022-08-19T12:05:31.237Z,14.10
2022-08-19T12:08:17.843Z,16.70
2022-08-19T12:11:01.888Z,15.10
2022-08-19T12:13:47.473Z,14.00
2022-08-19T12:16:31.852Z,14.80
2022-08-19T12:19:21.847Z,15.30
2022-08-19T12:22:04.729Z,14.40
2022-08-19T12:24:46.830Z,15.20
2022-08-19T12:27:40.154Z,14.00
2022-08-19T12:30:30.897Z,13.70
2022-08-19T12:33:14.868Z,13.40
2022-08-19T12:36:02.153Z,15.00
2022-08-19T12:38:45.380Z,16.10
2022-08-19T12:41:27.900Z,15.60
2022-08-19T12:44:09.795Z,16.00
2022-08-19T12:46:54.148Z,14.60
2022-08-19T12:49:53.315Z,16.00
2022-08-19T12:52:38.369Z,14.30
2022-08-19T12:55:27.338Z,15.00
2022-08-19T12:58:13.729Z,13.70
2022-08-19T13:01:03.272Z,14.80
2022-08-19T13:03:48.019Z,14.80
2022-08-19T13:06:32.988Z,15.40
2022-08-19T13:09:15.397Z,16.00
2022-08-19T13:11:58.109Z,17.30
2022-08-19T13:14:41.605Z,17.10
2022-08-19T13:17:24.511Z,17.50
2022-08-19T13:20:10.315Z,19.10
2022-08-19T13:22:52.758Z,20.10
2022-08-19T13:25:34.654Z,19.10
2022-08-19T13:28:16.653Z,19.40
2022-08-19T13:31:20.051Z,19.60
2022-08-19T13:34:02.051Z,20.20
2022-08-19T13:36:44.472Z,19.90
2022-08-19T13:39:26.509Z,21.40
2022-08-19T13:42:09.684Z,21.00
2022-08-19T13:44:57.255Z,20.40
2022-08-19T13:47:45.354Z,20.40
2022-08-19T13:50:32.592Z,20.90
2022-08-19T13:53:15.433Z,22.30
2022-08-19T13:55:57.388Z,22.10
2022-08-19T13:58:40.108Z,21.00
2022-08-19T14:01:25.144Z,21.90
2022-08-19T14:04:08.243Z,20.70
2022-08-19T14:06:50.197Z,21.90
2022-08-19T14:09:32.193Z,21.00
2022-08-19T14:12:15.145Z,19.90
2022-08-19T14:15:11.856Z,20.50
2022-08-19T14:17:55.084Z,21.50
2022-08-19T14:20:37.705Z,21.20
2022-08-19T14:23:20.103Z,21.90
2022-08-19T14:26:08.888Z,21.60
2022-08-19T14:28:51.166Z,23.30
2022-08-19T14:31:33.062Z,22.90
2022-08-19T14:34:15.102Z,23.50
2022-08-19T14:36:57.057Z,23.00
2022-08-19T14:39:39.547Z,24.50
2022-08-19T14:42:21.567Z,24.30
2022-08-19T14:45:06.219Z,25.70
2022-08-19T14:47:48.199Z,25.00
2022-08-19T14:50:30.272Z,23.20
2022-08-19T14:53:13.143Z,23.70
2022-08-19T14:55:55.241Z,24.10
2022-08-19T14:58:39.087Z,24.60
2022-08-19T15:01:24.043Z,23.60
2022-08-19T15:04:06.356Z,22.10
2022-08-19T15:06:48.329Z,23.80
2022-08-19T15:09:30.249Z,25.00
2022-08-19T15:12:12.146Z,22.20
2022-08-19T15:15:04.486Z,24.40
2022-08-19T15:17:47.537Z,24.80
2022-08-19T15:20:30.881Z,24.60
2022-08-19T15:23:13.147Z,25.00
2022-08-19T15:25:56.811Z,23.20
2022-08-19T15:28:38.778Z,22.90
2022-08-19T15:31:27.987Z,23.00
2022-08-19T15:34:10.557Z,23.90
2022-08-19T15:36:53.476Z,21.30
2022-08-19T15:39:35.922Z,23.10
2022-08-19T15:42:29.603Z,24.20
2022-08-19T15:45:14.119Z,21.50
2022-08-19T15:47:56.323Z,20.60
2022-08-19T15:50:39.680Z,20.80
2022-08-19T15:53:21.951Z,20.20
2022-08-19T15:56:04.564Z,21.30
2022-08-19T15:59:04.993Z,20.50
2022-08-19T16:02:05.868Z,21.00
2022-08-19T16:05:12.408Z,19.10
2022-08-19T16:07:55.043Z,18.60
2022-08-19T16:10:39.885Z,18.10
2022-08-19T16:13:23.216Z,20.60
2022-08-19T16:16:06.443Z,19.20
2022-08-19T16:18:53.766Z,29.70
2022-08-19T16:21:38.322Z,21.60
2022-08-19T16:24:25.754Z,20.60
2022-08-19T16:27:07.695Z,19.50
2022-08-19T16:29:50.258Z,18.80
2022-08-19T16:32:32.152Z,19.20
2022-08-19T16:35:14.201Z,18.40
2022-08-19T16:37:56.383Z,18.60
2022-08-19T16:40:38.762Z,18.20
2022-08-19T16:43:22.397Z,18.70
2022-08-19T16:46:04.293Z,19.80
2022-08-19T16:48:46.496Z,20.50
2022-08-19T16:51:28.801Z,20.80
2022-08-19T16:54:10.902Z,21.10
2022-08-19T16:56:52.797Z,20.00
2022-08-19T16:59:35.719Z,21.30
2022-08-19T17:02:19.360Z,22.20
2022-08-19T17:05:01.454Z,22.80
2022-08-19T17:07:43.965Z,21.70
2022-08-19T17:10:25.963Z,21.80
2022-08-19T17:13:07.961Z,22.10
2022-08-19T17:15:50.778Z,21.80
2022-08-19T17:18:33.522Z,21.60
2022-08-19T17:21:15.491Z,22.30
2022-08-19T17:23:59.640Z,22.60
2022-08-19T17:26:41.842Z,22.50
2022-08-19T17:29:23.781Z,25.10
2022-08-19T17:32:07.989Z,25.70
2022-08-19T17:34:49.885Z,26.40
2022-08-19T17:37:31.885Z,24.60
2022-08-19T17:40:15.272Z,26.20
2022-08-19T17:43:03.151Z,25.80
2022-08-19T17:45:45.865Z,25.70
2022-08-19T17:48:27.760Z,26.00
2022-08-19T17:51:18.227Z,26.80
2022-08-19T17:54:05.888Z,26.20
2022-08-19T17:56:48.501Z,26.60
2022-08-19T17:59:30.509Z,26.90
2022-08-19T18:02:12.442Z,26.20
2022-08-19T18:04:54.802Z,27.30
2022-08-19T18:07:36.804Z,25.50
2022-08-19T18:10:20.296Z,24.60
2022-08-19T18:13:02.333Z,25.70
2022-08-19T18:15:59.897Z,25.80
2022-08-19T18:18:44.249Z,43.60
2022-08-19T18:21:31.807Z,27.90
2022-08-19T18:24:14.185Z,25.60
2022-08-19T18:26:56.080Z,28.40
2022-08-19T18:29:38.656Z,29.90
2022-08-19T18:32:23.861Z,27.90
2022-08-19T18:35:11.213Z,27.80
2022-08-19T18:37:53.090Z,25.00
2022-08-19T18:40:54.130Z,26.80
2022-08-19T18:43:55.073Z,26.90
2022-08-19T18:46:57.386Z,29.00
2022-08-19T18:49:39.752Z,28.60
2022-08-19T18:52:27.432Z,28.30
2022-08-19T18:55:09.823Z,29.60
2022-08-19T18:57:52.114Z,29.00
2022-08-19T19:00:37.009Z,31.00
2022-08-19T19:03:18.857Z,29.60
2022-08-19T19:06:01.673Z,30.00
2022-08-19T19:08:43.569Z,29.40
2022-08-19T19:11:32.742Z,30.30
2022-08-19T19:14:32.720Z,31.40
2022-08-19T19:17:28.175Z,29.90
2022-08-19T19:20:10.380Z,32.10
2022-08-19T19:22:55.308Z,32.20
2022-08-19T19:25:50.285Z,32.40
2022-08-19T19:28:33.099Z,34.30
2022-08-19T19:31:20.160Z,34.20
2022-08-19T19:34:03.405Z,36.10
2022-08-19T19:36:45.606Z,34.70
2022-08-19T19:39:30.638Z,35.00
2022-08-19T19:45:10.033Z,33.80
2022-08-19T19:47:51.954Z,35.10
2022-08-19T19:50:34.007Z,35.70
2022-08-19T19:53:15.924Z,35.30
2022-08-19T19:55:59.533Z,33.50
2022-08-19T19:58:42.173Z,34.90
2022-08-19T20:01:27.524Z,35.10
2022-08-19T20:04:09.446Z,35.70
2022-08-19T20:06:51.345Z,33.70
2022-08-19T20:09:56.326Z,35.70
2022-08-19T20:12:35.511Z,35.50
2022-08-19T20:15:18.124Z,34.60
2022-08-19T20:18:00.961Z,45.80
2022-08-19T20:20:47.583Z,47.90
2022-08-19T20:23:32.105Z,38.40
2022-08-19T20:26:26.750Z,35.60
2022-08-19T20:29:38.034Z,33.70
2022-08-19T20:32:20.596Z,33.10
2022-08-19T20:35:02.593Z,34.20
2022-08-19T20:37:44.797Z,34.40
2022-08-19T20:40:28.538Z,42.60
2022-08-19T20:43:13.503Z,41.50
2022-08-19T20:45:56.422Z,37.50
2022-08-19T20:48:39.138Z,39.80
2022-08-19T20:51:21.189Z,39.90
2022-08-19T20:54:03.282Z,34.90
2022-08-19T20:56:47.077Z,33.50
2022-08-19T20:59:29.633Z,33.60
2022-08-19T21:02:13.155Z,34.80
2022-08-19T21:04:55.223Z,35.30
2022-08-19T21:07:42.900Z,35.10
2022-08-19T21:10:26.710Z,34.70
2022-08-19T21:13:08.532Z,33.80
2022-08-19T21:15:51.621Z,33.60
2022-08-19T21:18:35.664Z,32.50
2022-08-19T21:21:17.554Z,31.50
2022-08-19T21:23:59.916Z,31.70
2022-08-19T21:26:41.959Z,31.50
2022-08-19T21:29:23.959Z,33.40
2022-08-19T21:32:06.160Z,35.10
2022-08-19T21:34:48.009Z,41.40
2022-08-19T21:37:30.005Z,39.20
2022-08-19T21:40:12.454Z,36.50
2022-08-19T21:42:54.664Z,43.40
2022-08-19T21:45:36.906Z,41.00
2022-08-19T21:48:19.382Z,35.10
2022-08-19T21:51:01.278Z,36.30
2022-08-19T21:53:43.699Z,36.30
2022-08-19T21:56:25.782Z,37.40
2022-08-19T21:59:07.881Z,36.00
2022-08-19T22:01:58.821Z,36.10
2022-08-19T22:04:48.675Z,36.70
2022-08-19T22:07:30.670Z,36.90
2022-08-19T22:10:13.283Z,37.60
2022-08-19T22:12:56.510Z,37.80
2022-08-19T22:15:38.404Z,38.20
2022-08-19T22:18:20.813Z,37.20
2022-08-19T22:21:06.395Z,38.00
2022-08-19T22:23:51.467Z,38.10
2022-08-19T22:26:33.312Z,36.80
2022-08-19T22:29:17.248Z,39.30
2022-08-19T22:31:59.404Z,39.00
2022-08-19T22:34:41.608Z,38.20
2022-08-19T22:37:23.606Z,38.30
2022-08-19T22:40:06.309Z,39.70
2022-08-19T22:42:48.992Z,38.40
2022-08-19T22:45:31.899Z,37.30
2022-08-19T22:48:16.373Z,39.10
2022-08-19T22:51:17.777Z,38.70
2022-08-19T22:53:59.866Z,38.00
2022-08-19T22:56:42.579Z,38.70
2022-08-19T22:59:24.577Z,38.60
2022-08-19T23:02:07.137Z,39.80
2022-08-19T23:04:50.108Z,39.50
2022-08-19T23:07:32.006Z,40.60
2022-08-19T23:10:14.002Z,40.00
2022-08-19T23:13:09.723Z,39.20
2022-08-19T23:15:51.721Z,40.40
2022-08-19T23:18:34.231Z,40.10
2022-08-19T23:21:16.786Z,39.40
2022-08-19T23:23:59.088Z,39.90
2022-08-19T23:27:03.985Z,41.00
2022-08-19T23:30:05.540Z,39.10
2022-08-19T23:32:47.435Z,39.30
2022-08-19T23:35:34.248Z,39.10
2022-08-19T23:38:16.346Z,39.30
2022-08-19T23:41:01.211Z,37.60
2022-08-19T23:43:44.654Z,38.50
2022-08-19T23:46:27.945Z,38.90
2022-08-19T23:49:10.484Z,39.20
2022-08-19T23:51:53.631Z,37.40
2022-08-19T23:54:43.467Z,37.50
2022-08-19T23:57:25.899Z,37.40
